sensor_id;sensor_type;location;lat;lon;timestamp;temperature;humidity
23207;DHT22;11773;52.570;13.052;2023-04-03T00:01:43;3.70;99.90
23207;DHT22;11773;52.570;13.052;2023-04-03T00:04:12;3.70;99.90
23207;DHT22;11773;52.570;13.052;2023-04-03T00:06:42;3.80;99.90
23207;DHT22;11773;52.570;13.052;2023-04-03T00:09:12;3.90;99.90
23207;DHT22;11773;52.570;13.052;2023-04-03T00:11:48;3.90;99.90
23207;DHT22;11773;52.570;13.052;2023-04-03T00:14:18;4.00;99.90
23207;DHT22;11773;52.570;13.052;2023-04-03T00:16:47;3.80;99.90
23207;DHT22;11773;52.570;13.052;2023-04-03T00:19:17;3.80;99.90
23207;DHT22;11773;52.570;13.052;2023-04-03T00:21:47;3.80;99.90
23207;DHT22;11773;52.570;13.052;2023-04-03T00:24:16;3.80;99.90
23207;DHT22;11773;52.570;13.052;2023-04-03T00:26:46;3.90;99.90
23207;DHT22;11773;52.570;13.052;2023-04-03T00:29:15;4.00;99.90
23207;DHT22;11773;52.570;13.052;2023-04-03T00:31:45;3.90;99.90
23207;DHT22;11773;52.570;13.052;2023-04-03T00:34:14;3.90;99.90
23207;DHT22;11773;52.570;13.052;2023-04-03T00:36:44;4.00;99.90
23207;DHT22;11773;52.570;13.052;2023-04-03T00:39:13;4.00;99.90
23207;DHT22;11773;52.570;13.052;2023-04-03T00:41:43;3.70;99.90
23207;DHT22;11773;52.570;13.052;2023-04-03T00:44:20;3.80;99.90
23207;DHT22;11773;52.570;13.052;2023-04-03T00:46:51;3.90;99.90
23207;DHT22;11773;52.570;13.052;2023-04-03T00:49:20;3.90;99.90
23207;DHT22;11773;52.570;13.052;2023-04-03T00:51:50;3.80;99.90
23207;DHT22;11773;52.570;13.052;2023-04-03T00:54:20;3.80;99.90
23207;DHT22;11773;52.570;13.052;2023-04-03T00:56:51;3.80;99.90
23207;DHT22;11773;52.570;13.052;2023-04-03T00:59:30;3.80;99.90
23207;DHT22;11773;52.570;13.052;2023-04-03T01:02:00;3.70;99.90
23207;DHT22;11773;52.570;13.052;2023-04-03T01:04:33;3.90;99.90
23207;DHT22;11773;52.570;13.052;2023-04-03T01:07:12;3.80;99.90
23207;DHT22;11773;52.570;13.052;2023-04-03T01:09:48;3.80;99.90
23207;DHT22;11773;52.570;13.052;2023-04-03T01:12:28;3.90;99.90
23207;DHT22;11773;52.570;13.052;2023-04-03T01:15:03;3.90;99.90
23207;DHT22;11773;52.570;13.052;2023-04-03T01:17:44;3.80;99.90
23207;DHT22;11773;52.570;13.052;2023-04-03T01:25:53;4.00;99.90
23207;DHT22;11773;52.570;13.052;2023-04-03T01:28:27;3.90;99.90
23207;DHT22;11773;52.570;13.052;2023-04-03T01:31:27;3.90;99.90
23207;DHT22;11773;52.570;13.052;2023-04-03T01:33:58;4.00;99.90
23207;DHT22;11773;52.570;13.052;2023-04-03T01:36:30;3.90;99.90
23207;DHT22;11773;52.570;13.052;2023-04-03T01:39:00;3.90;99.90
23207;DHT22;11773;52.570;13.052;2023-04-03T01:41:30;3.90;99.90
23207;DHT22;11773;52.570;13.052;2023-04-03T01:44:00;3.90;99.90
23207;DHT22;11773;52.570;13.052;2023-04-03T01:46:29;4.00;99.90
23207;DHT22;11773;52.570;13.052;2023-04-03T01:49:00;4.00;99.90
23207;DHT22;11773;52.570;13.052;2023-04-03T01:51:30;4.00;99.90
23207;DHT22;11773;52.570;13.052;2023-04-03T01:54:00;3.90;99.90
23207;DHT22;11773;52.570;13.052;2023-04-03T01:56:30;3.90;99.90
23207;DHT22;11773;52.570;13.052;2023-04-03T01:58:59;3.90;99.90
23207;DHT22;11773;52.570;13.052;2023-04-03T02:01:29;3.90;99.90
23207;DHT22;11773;52.570;13.052;2023-04-03T02:03:58;4.00;99.90
23207;DHT22;11773;52.570;13.052;2023-04-03T02:06:28;3.80;99.90
23207;DHT22;11773;52.570;13.052;2023-04-03T02:08:57;3.80;99.90
23207;DHT22;11773;52.570;13.052;2023-04-03T02:11:27;3.80;99.90
23207;DHT22;11773;52.570;13.052;2023-04-03T02:13:57;3.90;99.90
23207;DHT22;11773;52.570;13.052;2023-04-03T02:16:26;3.90;99.90
23207;DHT22;11773;52.570;13.052;2023-04-03T02:18:56;3.90;99.90
23207;DHT22;11773;52.570;13.052;2023-04-03T02:21:26;3.90;99.90
23207;DHT22;11773;52.570;13.052;2023-04-03T02:23:56;3.90;99.90
23207;DHT22;11773;52.570;13.052;2023-04-03T02:26:25;3.80;99.90
23207;DHT22;11773;52.570;13.052;2023-04-03T02:28:55;3.80;99.90
23207;DHT22;11773;52.570;13.052;2023-04-03T02:31:24;3.60;99.90
23207;DHT22;11773;52.570;13.052;2023-04-03T02:33:54;3.70;99.90
23207;DHT22;11773;52.570;13.052;2023-04-03T02:36:23;3.60;99.90
23207;DHT22;11773;52.570;13.052;2023-04-03T02:38:53;3.60;99.90
23207;DHT22;11773;52.570;13.052;2023-04-03T02:41:23;3.60;99.90
23207;DHT22;11773;52.570;13.052;2023-04-03T02:43:54;3.60;99.90
23207;DHT22;11773;52.570;13.052;2023-04-03T02:46:23;3.50;99.90
23207;DHT22;11773;52.570;13.052;2023-04-03T02:48:53;3.50;99.90
23207;DHT22;11773;52.570;13.052;2023-04-03T02:51:23;3.60;99.90
23207;DHT22;11773;52.570;13.052;2023-04-03T02:53:52;3.50;99.90
23207;DHT22;11773;52.570;13.052;2023-04-03T02:56:22;3.60;99.90
23207;DHT22;11773;52.570;13.052;2023-04-03T02:58:52;3.50;99.90
23207;DHT22;11773;52.570;13.052;2023-04-03T03:01:22;3.50;99.90
23207;DHT22;11773;52.570;13.052;2023-04-03T03:03:51;3.50;99.90
23207;DHT22;11773;52.570;13.052;2023-04-03T03:06:21;3.50;99.90
23207;DHT22;11773;52.570;13.052;2023-04-03T03:08:50;3.60;99.90
23207;DHT22;11773;52.570;13.052;2023-04-03T03:11:20;3.60;99.90
23207;DHT22;11773;52.570;13.052;2023-04-03T03:13:49;3.60;99.90
23207;DHT22;11773;52.570;13.052;2023-04-03T03:16:19;3.50;99.90
23207;DHT22;11773;52.570;13.052;2023-04-03T03:18:49;3.40;99.90
23207;DHT22;11773;52.570;13.052;2023-04-03T03:21:18;3.50;99.90
23207;DHT22;11773;52.570;13.052;2023-04-03T03:23:48;3.50;99.90
23207;DHT22;11773;52.570;13.052;2023-04-03T03:26:17;3.40;99.90
23207;DHT22;11773;52.570;13.052;2023-04-03T03:28:47;3.50;99.90
23207;DHT22;11773;52.570;13.052;2023-04-03T03:31:16;3.40;99.90
23207;DHT22;11773;52.570;13.052;2023-04-03T03:33:46;3.40;99.90
23207;DHT22;11773;52.570;13.052;2023-04-03T03:36:16;3.40;99.90
23207;DHT22;11773;52.570;13.052;2023-04-03T03:38:45;3.50;99.90
23207;DHT22;11773;52.570;13.052;2023-04-03T03:41:15;3.40;99.90
23207;DHT22;11773;52.570;13.052;2023-04-03T03:43:44;3.40;99.90
23207;DHT22;11773;52.570;13.052;2023-04-03T03:46:14;3.40;99.90
23207;DHT22;11773;52.570;13.052;2023-04-03T03:48:43;3.40;99.90
23207;DHT22;11773;52.570;13.052;2023-04-03T03:51:13;3.40;99.90
23207;DHT22;11773;52.570;13.052;2023-04-03T03:53:42;3.30;99.90
23207;DHT22;11773;52.570;13.052;2023-04-03T03:56:12;3.30;99.90
23207;DHT22;11773;52.570;13.052;2023-04-03T03:58:42;3.30;99.90
23207;DHT22;11773;52.570;13.052;2023-04-03T04:01:11;3.30;99.90
23207;DHT22;11773;52.570;13.052;2023-04-03T04:03:41;3.30;99.90
23207;DHT22;11773;52.570;13.052;2023-04-03T04:06:11;3.30;99.90
23207;DHT22;11773;52.570;13.052;2023-04-03T04:08:40;3.30;99.90
23207;DHT22;11773;52.570;13.052;2023-04-03T04:11:10;3.30;99.90
23207;DHT22;11773;52.570;13.052;2023-04-03T04:13:40;3.30;99.90
23207;DHT22;11773;52.570;13.052;2023-04-03T04:16:09;3.30;99.90
23207;DHT22;11773;52.570;13.052;2023-04-03T04:18:39;3.30;99.90
23207;DHT22;11773;52.570;13.052;2023-04-03T04:21:08;3.00;99.90
23207;DHT22;11773;52.570;13.052;2023-04-03T04:23:38;3.20;99.90
23207;DHT22;11773;52.570;13.052;2023-04-03T04:26:07;3.20;99.90
23207;DHT22;11773;52.570;13.052;2023-04-03T04:28:37;3.30;99.90
23207;DHT22;11773;52.570;13.052;2023-04-03T04:31:06;3.20;99.90
23207;DHT22;11773;52.570;13.052;2023-04-03T04:33:36;3.20;99.90
23207;DHT22;11773;52.570;13.052;2023-04-03T04:36:06;3.20;99.90
23207;DHT22;11773;52.570;13.052;2023-04-03T04:38:35;3.20;99.90
23207;DHT22;11773;52.570;13.052;2023-04-03T04:41:06;3.30;99.90
23207;DHT22;11773;52.570;13.052;2023-04-03T04:43:36;3.20;99.90
23207;DHT22;11773;52.570;13.052;2023-04-03T04:46:08;3.20;99.90
23207;DHT22;11773;52.570;13.052;2023-04-03T04:48:40;3.20;99.90
23207;DHT22;11773;52.570;13.052;2023-04-03T04:51:10;3.20;99.90
23207;DHT22;11773;52.570;13.052;2023-04-03T04:53:40;3.30;99.90
23207;DHT22;11773;52.570;13.052;2023-04-03T04:56:10;3.30;99.90
23207;DHT22;11773;52.570;13.052;2023-04-03T04:58:40;3.30;99.90
23207;DHT22;11773;52.570;13.052;2023-04-03T05:01:10;3.30;99.90
23207;DHT22;11773;52.570;13.052;2023-04-03T05:03:40;3.20;99.90
23207;DHT22;11773;52.570;13.052;2023-04-03T05:06:10;3.10;99.90
23207;DHT22;11773;52.570;13.052;2023-04-03T05:08:39;3.10;99.90
23207;DHT22;11773;52.570;13.052;2023-04-03T05:11:08;3.20;99.90
23207;DHT22;11773;52.570;13.052;2023-04-03T05:13:38;3.20;99.90
23207;DHT22;11773;52.570;13.052;2023-04-03T05:16:08;3.30;99.90
23207;DHT22;11773;52.570;13.052;2023-04-03T05:18:38;3.20;99.90
23207;DHT22;11773;52.570;13.052;2023-04-03T05:21:07;3.30;99.90
23207;DHT22;11773;52.570;13.052;2023-04-03T05:23:37;3.20;99.90
23207;DHT22;11773;52.570;13.052;2023-04-03T05:26:06;3.20;99.90
23207;DHT22;11773;52.570;13.052;2023-04-03T05:28:36;3.30;99.90
23207;DHT22;11773;52.570;13.052;2023-04-03T05:31:05;3.30;99.90
23207;DHT22;11773;52.570;13.052;2023-04-03T05:33:35;3.30;99.90
23207;DHT22;11773;52.570;13.052;2023-04-03T05:36:05;3.30;99.90
23207;DHT22;11773;52.570;13.052;2023-04-03T05:38:35;3.40;99.90
23207;DHT22;11773;52.570;13.052;2023-04-03T05:41:05;3.50;99.90
23207;DHT22;11773;52.570;13.052;2023-04-03T05:43:34;3.70;99.90
23207;DHT22;11773;52.570;13.052;2023-04-03T05:46:14;3.80;99.90
23207;DHT22;11773;52.570;13.052;2023-04-03T05:48:46;3.50;99.90
23207;DHT22;11773;52.570;13.052;2023-04-03T05:51:18;3.70;99.90
23207;DHT22;11773;52.570;13.052;2023-04-03T05:53:52;3.80;99.90
23207;DHT22;11773;52.570;13.052;2023-04-03T05:56:24;3.80;99.90
23207;DHT22;11773;52.570;13.052;2023-04-03T05:58:53;3.80;99.90
23207;DHT22;11773;52.570;13.052;2023-04-03T06:01:23;3.70;99.90
23207;DHT22;11773;52.570;13.052;2023-04-03T06:03:54;3.90;99.90
23207;DHT22;11773;52.570;13.052;2023-04-03T06:06:24;4.00;99.90
23207;DHT22;11773;52.570;13.052;2023-04-03T06:08:53;4.00;99.90
23207;DHT22;11773;52.570;13.052;2023-04-03T06:11:23;4.20;99.90
23207;DHT22;11773;52.570;13.052;2023-04-03T06:13:52;4.40;99.90
23207;DHT22;11773;52.570;13.052;2023-04-03T06:16:23;4.70;99.90
23207;DHT22;11773;52.570;13.052;2023-04-03T06:18:52;4.80;99.90
23207;DHT22;11773;52.570;13.052;2023-04-03T06:21:22;5.00;99.90
23207;DHT22;11773;52.570;13.052;2023-04-03T06:23:52;5.50;99.90
23207;DHT22;11773;52.570;13.052;2023-04-03T06:26:21;5.80;99.90
23207;DHT22;11773;52.570;13.052;2023-04-03T06:28:51;6.30;99.90
23207;DHT22;11773;52.570;13.052;2023-04-03T06:31:20;6.60;99.90
23207;DHT22;11773;52.570;13.052;2023-04-03T06:33:50;6.70;99.90
23207;DHT22;11773;52.570;13.052;2023-04-03T06:36:20;6.90;99.90
23207;DHT22;11773;52.570;13.052;2023-04-03T06:38:50;7.00;99.90
23207;DHT22;11773;52.570;13.052;2023-04-03T06:41:20;7.40;99.90
23207;DHT22;11773;52.570;13.052;2023-04-03T06:43:50;7.50;99.90
23207;DHT22;11773;52.570;13.052;2023-04-03T06:46:21;7.80;99.90
23207;DHT22;11773;52.570;13.052;2023-04-03T06:48:52;7.80;99.90
23207;DHT22;11773;52.570;13.052;2023-04-03T06:51:27;8.20;99.90
23207;DHT22;11773;52.570;13.052;2023-04-03T06:53:58;7.80;99.90
23207;DHT22;11773;52.570;13.052;2023-04-03T06:56:28;8.30;99.90
23207;DHT22;11773;52.570;13.052;2023-04-03T06:58:58;8.40;99.90
23207;DHT22;11773;52.570;13.052;2023-04-03T07:01:29;8.80;99.90
23207;DHT22;11773;52.570;13.052;2023-04-03T07:03:59;8.80;99.90
23207;DHT22;11773;52.570;13.052;2023-04-03T07:06:28;8.80;99.90
23207;DHT22;11773;52.570;13.052;2023-04-03T07:08:59;9.10;99.90
23207;DHT22;11773;52.570;13.052;2023-04-03T07:11:30;8.80;99.90
23207;DHT22;11773;52.570;13.052;2023-04-03T07:14:00;8.90;99.90
23207;DHT22;11773;52.570;13.052;2023-04-03T07:16:29;8.50;99.90
23207;DHT22;11773;52.570;13.052;2023-04-03T07:18:59;8.30;99.90
23207;DHT22;11773;52.570;13.052;2023-04-03T07:21:29;8.20;99.90
23207;DHT22;11773;52.570;13.052;2023-04-03T07:23:59;7.80;99.90
23207;DHT22;11773;52.570;13.052;2023-04-03T07:26:30;8.00;99.90
23207;DHT22;11773;52.570;13.052;2023-04-03T07:28:59;8.10;99.90
23207;DHT22;11773;52.570;13.052;2023-04-03T07:31:29;8.30;99.90
23207;DHT22;11773;52.570;13.052;2023-04-03T07:33:59;8.50;99.90
23207;DHT22;11773;52.570;13.052;2023-04-03T07:36:28;8.10;99.90
23207;DHT22;11773;52.570;13.052;2023-04-03T07:38:59;8.30;99.90
23207;DHT22;11773;52.570;13.052;2023-04-03T07:41:29;8.20;99.90
23207;DHT22;11773;52.570;13.052;2023-04-03T07:43:58;8.10;99.90
23207;DHT22;11773;52.570;13.052;2023-04-03T07:46:28;7.70;99.90
23207;DHT22;11773;52.570;13.052;2023-04-03T07:48:57;7.60;99.90
23207;DHT22;11773;52.570;13.052;2023-04-03T07:51:27;7.60;99.90
23207;DHT22;11773;52.570;13.052;2023-04-03T07:53:57;7.50;99.90
23207;DHT22;11773;52.570;13.052;2023-04-03T07:56:27;7.30;99.90
23207;DHT22;11773;52.570;13.052;2023-04-03T07:58:57;7.50;99.90
23207;DHT22;11773;52.570;13.052;2023-04-03T08:01:27;7.90;99.90
23207;DHT22;11773;52.570;13.052;2023-04-03T08:03:58;7.90;99.90
23207;DHT22;11773;52.570;13.052;2023-04-03T08:06:28;7.70;99.90
23207;DHT22;11773;52.570;13.052;2023-04-03T08:09:03;7.80;99.90
23207;DHT22;11773;52.570;13.052;2023-04-03T08:11:33;7.60;99.90
23207;DHT22;11773;52.570;13.052;2023-04-03T08:14:04;7.40;99.90
23207;DHT22;11773;52.570;13.052;2023-04-03T08:16:34;7.30;99.90
23207;DHT22;11773;52.570;13.052;2023-04-03T08:19:03;7.20;99.90
23207;DHT22;11773;52.570;13.052;2023-04-03T08:21:37;7.50;99.90
23207;DHT22;11773;52.570;13.052;2023-04-03T08:24:06;7.40;99.90
23207;DHT22;11773;52.570;13.052;2023-04-03T08:26:37;7.30;99.90
23207;DHT22;11773;52.570;13.052;2023-04-03T08:29:10;7.10;99.90
23207;DHT22;11773;52.570;13.052;2023-04-03T08:31:39;7.30;99.90
23207;DHT22;11773;52.570;13.052;2023-04-03T08:34:09;7.00;99.90
23207;DHT22;11773;52.570;13.052;2023-04-03T08:36:39;6.70;99.90
23207;DHT22;11773;52.570;13.052;2023-04-03T08:39:09;6.70;99.90
23207;DHT22;11773;52.570;13.052;2023-04-03T08:41:43;6.50;99.90
23207;DHT22;11773;52.570;13.052;2023-04-03T08:49:57;6.50;99.90
23207;DHT22;11773;52.570;13.052;2023-04-03T08:52:52;6.30;99.90
23207;DHT22;11773;52.570;13.052;2023-04-03T08:58:22;6.10;99.90
23207;DHT22;11773;52.570;13.052;2023-04-03T09:01:14;6.10;99.90
23207;DHT22;11773;52.570;13.052;2023-04-03T09:03:48;6.00;99.90
23207;DHT22;11773;52.570;13.052;2023-04-03T09:06:26;6.20;99.90
23207;DHT22;11773;52.570;13.052;2023-04-03T09:09:30;6.30;99.90
23207;DHT22;11773;52.570;13.052;2023-04-03T09:12:22;6.30;99.90
23207;DHT22;11773;52.570;13.052;2023-04-03T09:18:03;7.00;99.90
23207;DHT22;11773;52.570;13.052;2023-04-03T09:26:24;6.80;99.90
23207;DHT22;11773;52.570;13.052;2023-04-03T09:29:02;6.80;99.90
23207;DHT22;11773;52.570;13.052;2023-04-03T09:31:42;6.70;99.90
23207;DHT22;11773;52.570;13.052;2023-04-03T09:34:26;6.60;99.90
23207;DHT22;11773;52.570;13.052;2023-04-03T09:36:59;7.00;99.90
23207;DHT22;11773;52.570;13.052;2023-04-03T09:39:51;6.90;99.90
23207;DHT22;11773;52.570;13.052;2023-04-03T09:42:24;6.90;99.90
23207;DHT22;11773;52.570;13.052;2023-04-03T09:45:05;7.30;99.90
23207;DHT22;11773;52.570;13.052;2023-04-03T09:47:36;7.20;99.90
23207;DHT22;11773;52.570;13.052;2023-04-03T09:50:20;7.10;99.90
23207;DHT22;11773;52.570;13.052;2023-04-03T09:52:51;7.60;99.90
23207;DHT22;11773;52.570;13.052;2023-04-03T09:55:23;7.50;99.90
23207;DHT22;11773;52.570;13.052;2023-04-03T09:58:04;7.50;99.90
23207;DHT22;11773;52.570;13.052;2023-04-03T10:00:37;7.50;99.90
23207;DHT22;11773;52.570;13.052;2023-04-03T10:03:31;7.50;99.90
23207;DHT22;11773;52.570;13.052;2023-04-03T10:06:00;7.10;99.90
23207;DHT22;11773;52.570;13.052;2023-04-03T10:08:33;7.30;99.90
23207;DHT22;11773;52.570;13.052;2023-04-03T10:14:01;7.60;99.90
23207;DHT22;11773;52.570;13.052;2023-04-03T10:16:54;7.60;99.90
23207;DHT22;11773;52.570;13.052;2023-04-03T10:25:28;8.00;99.90
23207;DHT22;11773;52.570;13.052;2023-04-03T10:28:03;8.00;99.90
23207;DHT22;11773;52.570;13.052;2023-04-03T10:31:10;8.00;99.90
23207;DHT22;11773;52.570;13.052;2023-04-03T10:34:05;8.00;99.90
23207;DHT22;11773;52.570;13.052;2023-04-03T10:42:42;7.60;99.90
23207;DHT22;11773;52.570;13.052;2023-04-03T10:48:12;7.80;99.90
23207;DHT22;11773;52.570;13.052;2023-04-03T10:54:15;7.40;99.90
23207;DHT22;11773;52.570;13.052;2023-04-03T10:56:50;7.80;99.90
23207;DHT22;11773;52.570;13.052;2023-04-03T10:59:47;7.80;99.90
23207;DHT22;11773;52.570;13.052;2023-04-03T11:02:30;7.70;99.90
23207;DHT22;11773;52.570;13.052;2023-04-03T11:05:28;7.90;99.90
23207;DHT22;11773;52.570;13.052;2023-04-03T11:11:04;7.90;99.90
23207;DHT22;11773;52.570;13.052;2023-04-03T11:13:44;8.00;99.90
23207;DHT22;11773;52.570;13.052;2023-04-03T11:16:28;7.80;99.90
23207;DHT22;11773;52.570;13.052;2023-04-03T11:24:54;8.30;99.90
23207;DHT22;11773;52.570;13.052;2023-04-03T11:27:27;8.20;99.90
23207;DHT22;11773;52.570;13.052;2023-04-03T11:30:01;7.70;99.90
23207;DHT22;11773;52.570;13.052;2023-04-03T11:33:05;7.80;99.90
23207;DHT22;11773;52.570;13.052;2023-04-03T11:35:49;7.90;99.90
23207;DHT22;11773;52.570;13.052;2023-04-03T11:38:30;8.30;99.90
23207;DHT22;11773;52.570;13.052;2023-04-03T11:41:07;8.50;99.90
23207;DHT22;11773;52.570;13.052;2023-04-03T11:44:03;8.20;99.90
23207;DHT22;11773;52.570;13.052;2023-04-03T11:46:52;8.50;99.90
23207;DHT22;11773;52.570;13.052;2023-04-03T11:49:50;8.60;99.90
23207;DHT22;11773;52.570;13.052;2023-04-03T11:55:46;8.20;99.90
23207;DHT22;11773;52.570;13.052;2023-04-03T11:58:13;8.20;99.90
23207;DHT22;11773;52.570;13.052;2023-04-03T12:00:53;8.10;99.90
23207;DHT22;11773;52.570;13.052;2023-04-03T12:11:31;8.60;99.90
23207;DHT22;11773;52.570;13.052;2023-04-03T12:14:04;8.50;99.90
23207;DHT22;11773;52.570;13.052;2023-04-03T12:19:34;8.40;99.90
23207;DHT22;11773;52.570;13.052;2023-04-03T12:22:11;8.20;99.90
23207;DHT22;11773;52.570;13.052;2023-04-03T12:24:45;8.00;99.90
23207;DHT22;11773;52.570;13.052;2023-04-03T12:27:33;8.20;99.90
23207;DHT22;11773;52.570;13.052;2023-04-03T12:30:11;8.00;99.90
23207;DHT22;11773;52.570;13.052;2023-04-03T12:33:04;8.00;99.90
23207;DHT22;11773;52.570;13.052;2023-04-03T12:35:47;7.90;99.90
23207;DHT22;11773;52.570;13.052;2023-04-03T12:38:29;7.60;99.90
23207;DHT22;11773;52.570;13.052;2023-04-03T12:41:17;7.70;99.90
23207;DHT22;11773;52.570;13.052;2023-04-03T12:47:25;7.70;99.90
23207;DHT22;11773;52.570;13.052;2023-04-03T12:50:18;7.70;99.90
23207;DHT22;11773;52.570;13.052;2023-04-03T12:53:04;7.70;99.90
23207;DHT22;11773;52.570;13.052;2023-04-03T12:55:41;7.80;99.90
23207;DHT22;11773;52.570;13.052;2023-04-03T12:58:27;7.50;99.90
23207;DHT22;11773;52.570;13.052;2023-04-03T13:01:02;7.80;99.90
23207;DHT22;11773;52.570;13.052;2023-04-03T13:03:33;8.00;99.90
23207;DHT22;11773;52.570;13.052;2023-04-03T13:06:06;8.00;99.90
23207;DHT22;11773;52.570;13.052;2023-04-03T13:08:36;8.10;99.90
23207;DHT22;11773;52.570;13.052;2023-04-03T13:11:12;8.30;99.90
23207;DHT22;11773;52.570;13.052;2023-04-03T13:14:00;8.00;99.90
23207;DHT22;11773;52.570;13.052;2023-04-03T13:16:28;7.90;99.90
23207;DHT22;11773;52.570;13.052;2023-04-03T13:18:58;8.00;99.90
23207;DHT22;11773;52.570;13.052;2023-04-03T13:21:32;7.80;99.90
23207;DHT22;11773;52.570;13.052;2023-04-03T13:24:04;7.60;99.90
23207;DHT22;11773;52.570;13.052;2023-04-03T13:26:35;8.00;99.90
23207;DHT22;11773;52.570;13.052;2023-04-03T13:29:17;8.10;99.90
23207;DHT22;11773;52.570;13.052;2023-04-03T13:31:42;8.10;99.90
23207;DHT22;11773;52.570;13.052;2023-04-03T13:34:17;7.80;99.90
23207;DHT22;11773;52.570;13.052;2023-04-03T13:39:32;7.50;99.90
23207;DHT22;11773;52.570;13.052;2023-04-03T13:42:22;7.70;99.90
23207;DHT22;11773;52.570;13.052;2023-04-03T13:45:05;7.90;99.90
23207;DHT22;11773;52.570;13.052;2023-04-03T13:47:40;8.00;99.90
23207;DHT22;11773;52.570;13.052;2023-04-03T13:50:23;7.70;99.90
23207;DHT22;11773;52.570;13.052;2023-04-03T13:52:59;7.80;99.90
23207;DHT22;11773;52.570;13.052;2023-04-03T13:55:33;7.80;99.90
23207;DHT22;11773;52.570;13.052;2023-04-03T14:01:22;7.50;99.90
23207;DHT22;11773;52.570;13.052;2023-04-03T14:03:42;7.70;99.90
23207;DHT22;11773;52.570;13.052;2023-04-03T14:06:16;7.90;99.90
23207;DHT22;11773;52.570;13.052;2023-04-03T14:08:46;7.90;99.90
23207;DHT22;11773;52.570;13.052;2023-04-03T14:11:22;7.80;99.90
23207;DHT22;11773;52.570;13.052;2023-04-03T14:14:00;7.60;99.90
23207;DHT22;11773;52.570;13.052;2023-04-03T14:16:36;7.60;99.90
23207;DHT22;11773;52.570;13.052;2023-04-03T14:19:07;7.80;99.90
23207;DHT22;11773;52.570;13.052;2023-04-03T14:21:38;8.00;99.90
23207;DHT22;11773;52.570;13.052;2023-04-03T14:24:08;7.70;99.90
23207;DHT22;11773;52.570;13.052;2023-04-03T14:26:39;7.80;99.90
23207;DHT22;11773;52.570;13.052;2023-04-03T14:29:11;7.80;99.90
23207;DHT22;11773;52.570;13.052;2023-04-03T14:31:43;7.90;99.90
23207;DHT22;11773;52.570;13.052;2023-04-03T14:34:15;7.70;99.90
23207;DHT22;11773;52.570;13.052;2023-04-03T14:36:45;7.40;99.90
23207;DHT22;11773;52.570;13.052;2023-04-03T14:39:17;7.20;99.90
23207;DHT22;11773;52.570;13.052;2023-04-03T14:41:47;7.30;99.90
23207;DHT22;11773;52.570;13.052;2023-04-03T14:44:17;7.30;99.90
23207;DHT22;11773;52.570;13.052;2023-04-03T14:46:46;7.50;99.90
23207;DHT22;11773;52.570;13.052;2023-04-03T14:49:24;7.60;99.90
23207;DHT22;11773;52.570;13.052;2023-04-03T14:51:57;7.40;99.90
23207;DHT22;11773;52.570;13.052;2023-04-03T14:54:27;7.20;99.90
23207;DHT22;11773;52.570;13.052;2023-04-03T14:56:59;7.50;99.90
23207;DHT22;11773;52.570;13.052;2023-04-03T14:59:31;7.40;99.90
23207;DHT22;11773;52.570;13.052;2023-04-03T15:02:00;7.70;99.90
23207;DHT22;11773;52.570;13.052;2023-04-03T15:04:30;7.70;99.90
23207;DHT22;11773;52.570;13.052;2023-04-03T15:07:00;7.80;99.90
23207;DHT22;11773;52.570;13.052;2023-04-03T15:09:29;7.60;99.90
23207;DHT22;11773;52.570;13.052;2023-04-03T15:11:59;7.60;99.90
23207;DHT22;11773;52.570;13.052;2023-04-03T15:14:28;7.90;99.90
23207;DHT22;11773;52.570;13.052;2023-04-03T15:17:00;7.80;99.90
23207;DHT22;11773;52.570;13.052;2023-04-03T15:19:38;7.90;99.90
23207;DHT22;11773;52.570;13.052;2023-04-03T15:22:19;7.70;99.90
23207;DHT22;11773;52.570;13.052;2023-04-03T15:24:44;7.70;99.90
23207;DHT22;11773;52.570;13.052;2023-04-03T15:27:13;7.80;99.90
23207;DHT22;11773;52.570;13.052;2023-04-03T15:29:44;7.70;99.90
23207;DHT22;11773;52.570;13.052;2023-04-03T15:32:14;7.60;99.90
23207;DHT22;11773;52.570;13.052;2023-04-03T15:34:43;7.80;99.90
23207;DHT22;11773;52.570;13.052;2023-04-03T15:37:13;7.70;99.90
23207;DHT22;11773;52.570;13.052;2023-04-03T15:39:42;7.70;99.90
23207;DHT22;11773;52.570;13.052;2023-04-03T15:42:12;7.30;99.90
23207;DHT22;11773;52.570;13.052;2023-04-03T15:44:41;7.40;99.90
23207;DHT22;11773;52.570;13.052;2023-04-03T15:47:11;7.30;99.90
23207;DHT22;11773;52.570;13.052;2023-04-03T15:49:40;7.10;99.90
23207;DHT22;11773;52.570;13.052;2023-04-03T15:52:10;7.30;99.90
23207;DHT22;11773;52.570;13.052;2023-04-03T15:54:42;7.20;99.90
23207;DHT22;11773;52.570;13.052;2023-04-03T15:57:11;7.30;99.90
23207;DHT22;11773;52.570;13.052;2023-04-03T15:59:41;7.40;99.90
23207;DHT22;11773;52.570;13.052;2023-04-03T16:02:12;7.30;99.90
23207;DHT22;11773;52.570;13.052;2023-04-03T16:04:41;7.20;99.90
23207;DHT22;11773;52.570;13.052;2023-04-03T16:07:11;7.10;99.90
23207;DHT22;11773;52.570;13.052;2023-04-03T16:09:40;7.40;99.90
23207;DHT22;11773;52.570;13.052;2023-04-03T16:12:10;7.30;99.90
23207;DHT22;11773;52.570;13.052;2023-04-03T16:14:39;7.10;99.90
23207;DHT22;11773;52.570;13.052;2023-04-03T16:17:09;7.00;99.90
23207;DHT22;11773;52.570;13.052;2023-04-03T16:19:39;7.00;99.90
23207;DHT22;11773;52.570;13.052;2023-04-03T16:22:08;7.00;99.90
23207;DHT22;11773;52.570;13.052;2023-04-03T16:24:38;7.20;99.90
23207;DHT22;11773;52.570;13.052;2023-04-03T16:27:07;7.30;99.90
23207;DHT22;11773;52.570;13.052;2023-04-03T16:29:37;7.20;99.90
23207;DHT22;11773;52.570;13.052;2023-04-03T16:32:07;6.90;99.90
23207;DHT22;11773;52.570;13.052;2023-04-03T16:34:37;6.80;99.90
23207;DHT22;11773;52.570;13.052;2023-04-03T16:37:09;6.80;99.90
23207;DHT22;11773;52.570;13.052;2023-04-03T16:39:38;6.80;99.90
23207;DHT22;11773;52.570;13.052;2023-04-03T16:42:08;6.70;99.90
23207;DHT22;11773;52.570;13.052;2023-04-03T16:44:37;6.90;99.90
23207;DHT22;11773;52.570;13.052;2023-04-03T16:47:07;6.90;99.90
23207;DHT22;11773;52.570;13.052;2023-04-03T16:49:38;6.70;99.90
23207;DHT22;11773;52.570;13.052;2023-04-03T16:52:07;6.70;99.90
23207;DHT22;11773;52.570;13.052;2023-04-03T16:54:37;6.80;99.90
23207;DHT22;11773;52.570;13.052;2023-04-03T16:57:07;7.10;99.90
23207;DHT22;11773;52.570;13.052;2023-04-03T16:59:36;7.10;99.90
23207;DHT22;11773;52.570;13.052;2023-04-03T17:02:06;6.90;99.90
23207;DHT22;11773;52.570;13.052;2023-04-03T17:04:35;7.10;99.90
23207;DHT22;11773;52.570;13.052;2023-04-03T17:07:05;7.10;99.90
23207;DHT22;11773;52.570;13.052;2023-04-03T17:09:34;7.00;99.90
23207;DHT22;11773;52.570;13.052;2023-04-03T17:12:05;6.90;99.90
23207;DHT22;11773;52.570;13.052;2023-04-03T17:14:34;6.80;99.90
23207;DHT22;11773;52.570;13.052;2023-04-03T17:17:04;6.60;99.90
23207;DHT22;11773;52.570;13.052;2023-04-03T17:19:34;6.40;99.90
23207;DHT22;11773;52.570;13.052;2023-04-03T17:22:06;6.50;99.90